KAL175 YSSY-YBBN
Flight info
| Callsign | KAL175 |
|---|---|
| Flight time | N/A |
| Altitude | 41000 |
| Route | OLSEM Y193 BANDA H252 GOMOL |
| Aircraft | B748/H-SDE3FGHIM1M2RWXY/LB1 |
Departure
| Time | 2026-04-24 07:50 |
|---|---|
| Airport | Sydney Kingsford Smith International Airport (YSSY) |
Arrival
| Time | N/A |
|---|---|
| Airport | Brisbane International Airport (YBBN) |
| Time | Latitude | Longitude | Altitude | Speed | Heading |
|---|---|---|---|---|---|
| 2026-04-24 06:54 | -33.93607 | 151.17762 | 40 ft | 0 kts | 304° |
| 2026-04-24 07:29 | -33.93614 | 151.17773 | 40 ft | 3 kts | 282° |
| 2026-04-24 07:29 | -33.93614 | 151.17800 | 39 ft | 3 kts | 236° |
| 2026-04-24 07:29 | -33.93604 | 151.17814 | 35 ft | 0 kts | 213° |
| 2026-04-24 07:32 | -33.93605 | 151.17814 | 35 ft | 0 kts | 210° |
| 2026-04-24 07:33 | -33.93607 | 151.17814 | 35 ft | 0 kts | 202° |
| 2026-04-24 07:33 | -33.93609 | 151.17814 | 35 ft | 1 kts | 193° |
| 2026-04-24 07:33 | -33.93626 | 151.17811 | 38 ft | 3 kts | 186° |
| 2026-04-24 07:33 | -33.93662 | 151.17808 | 40 ft | 8 kts | 185° |
| 2026-04-24 07:34 | -33.93683 | 151.17806 | 40 ft | 4 kts | 186° |
| 2026-04-24 07:34 | -33.93715 | 151.17799 | 40 ft | 7 kts | 189° |
| 2026-04-24 07:34 | -33.93805 | 151.17782 | 32 ft | 18 kts | 187° |
| 2026-04-24 07:34 | -33.93931 | 151.17791 | 32 ft | 17 kts | 169° |
| 2026-04-24 07:35 | -33.94052 | 151.17822 | 33 ft | 19 kts | 167° |
| 2026-04-24 07:35 | -33.94192 | 151.17860 | 34 ft | 21 kts | 168° |
| 2026-04-24 07:35 | -33.94328 | 151.17896 | 34 ft | 19 kts | 167° |
| 2026-04-24 07:35 | -33.94442 | 151.17905 | 34 ft | 14 kts | 192° |
| 2026-04-24 07:36 | -33.94532 | 151.17893 | 33 ft | 11 kts | 177° |
| 2026-04-24 07:36 | -33.94590 | 151.17904 | 35 ft | 6 kts | 169° |
| 2026-04-24 07:36 | -33.94643 | 151.17917 | 33 ft | 10 kts | 168° |
| 2026-04-24 07:36 | -33.94717 | 151.17935 | 32 ft | 12 kts | 168° |
| 2026-04-24 07:37 | -33.94807 | 151.17960 | 30 ft | 15 kts | 167° |
| 2026-04-24 07:37 | -33.94844 | 151.17970 | 29 ft | 0 kts | 167° |
| 2026-04-24 07:37 | -33.94850 | 151.17971 | 30 ft | 1 kts | 168° |
| 2026-04-24 07:37 | -33.94865 | 151.17975 | 30 ft | 3 kts | 169° |
| 2026-04-24 07:38 | -33.94895 | 151.17982 | 31 ft | 5 kts | 168° |
| 2026-04-24 07:38 | -33.94933 | 151.17991 | 32 ft | 6 kts | 168° |
| 2026-04-24 07:38 | -33.94974 | 151.18001 | 33 ft | 6 kts | 168° |
| 2026-04-24 07:38 | -33.95021 | 151.18014 | 35 ft | 7 kts | 166° |
| 2026-04-24 07:39 | -33.95062 | 151.18030 | 36 ft | 4 kts | 153° |
| 2026-04-24 07:39 | -33.95080 | 151.18044 | 36 ft | 2 kts | 141° |
| 2026-04-24 07:39 | -33.95085 | 151.18054 | 36 ft | 3 kts | 119° |
| 2026-04-24 07:39 | -33.95092 | 151.18076 | 36 ft | 3 kts | 103° |
| 2026-04-24 07:40 | -33.95093 | 151.18111 | 35 ft | 6 kts | 89° |
| 2026-04-24 07:40 | -33.95086 | 151.18180 | 34 ft | 10 kts | 80° |
| 2026-04-24 07:40 | -33.95071 | 151.18275 | 34 ft | 12 kts | 79° |
| 2026-04-24 07:40 | -33.95056 | 151.18371 | 35 ft | 12 kts | 79° |
| 2026-04-24 07:41 | -33.95036 | 151.18485 | 36 ft | 15 kts | 78° |
| 2026-04-24 07:41 | -33.95021 | 151.18573 | 36 ft | 3 kts | 77° |
| 2026-04-24 07:41 | -33.95012 | 151.18617 | 35 ft | 8 kts | 77° |
| 2026-04-24 07:41 | -33.95006 | 151.18648 | 35 ft | 0 kts | 76° |
| 2026-04-24 07:42 | -33.95005 | 151.18650 | 35 ft | 2 kts | 76° |
| 2026-04-24 07:42 | -33.95002 | 151.18670 | 35 ft | 0 kts | 77° |
| 2026-04-24 07:43 | -33.95001 | 151.18671 | 34 ft | 1 kts | 77° |
| 2026-04-24 07:43 | -33.94999 | 151.18682 | 34 ft | 2 kts | 77° |
| 2026-04-24 07:43 | -33.94996 | 151.18701 | 34 ft | 2 kts | 79° |
| 2026-04-24 07:44 | -33.94996 | 151.18703 | 34 ft | 0 kts | 79° |
| 2026-04-24 07:48 | -33.94994 | 151.18715 | 34 ft | 7 kts | 79° |
| 2026-04-24 07:48 | -33.94993 | 151.18804 | 34 ft | 10 kts | 109° |
| 2026-04-24 07:49 | -33.95037 | 151.18846 | 33 ft | 9 kts | 157° |
| 2026-04-24 07:49 | -33.95182 | 151.18893 | 31 ft | 55 kts | 167° |
| 2026-04-24 07:49 | -33.95899 | 151.19080 | 39 ft | 153 kts | 168° |
| 2026-04-24 07:49 | -33.97222 | 151.19383 | 46 ft | 235 kts | 172° |
| 2026-04-24 07:50 | -33.98990 | 151.19697 | 406 ft | 270 kts | 171° |
| 2026-04-24 07:50 | -34.00712 | 151.20351 | 1874 ft | 254 kts | 146° |
| 2026-04-24 07:50 | -34.01909 | 151.21799 | 3306 ft | 240 kts | 118° |
| 2026-04-24 07:50 | -34.02703 | 151.23551 | 4528 ft | 238 kts | 114° |
| 2026-04-24 07:51 | -34.03266 | 151.25461 | 5319 ft | 249 kts | 109° |
| 2026-04-24 07:51 | -34.04083 | 151.27392 | 5462 ft | 259 kts | 122° |
| 2026-04-24 07:51 | -34.05258 | 151.29080 | 5475 ft | 264 kts | 136° |
| 2026-04-24 07:51 | -34.06711 | 151.30464 | 5470 ft | 267 kts | 142° |
| 2026-04-24 07:52 | -34.08188 | 151.31760 | 5473 ft | 268 kts | 141° |
| 2026-04-24 07:52 | -34.09640 | 151.33157 | 5468 ft | 266 kts | 138° |
| 2026-04-24 07:52 | -34.10986 | 151.34670 | 5466 ft | 264 kts | 122° |
| 2026-04-24 07:52 | -34.11727 | 151.36653 | 5477 ft | 259 kts | 98° |
| 2026-04-24 07:53 | -34.11701 | 151.38831 | 5483 ft | 263 kts | 75° |
| 2026-04-24 07:53 | -34.10950 | 151.40723 | 5496 ft | 270 kts | 52° |
| 2026-04-24 07:54 | -34.10636 | 151.41183 | 5488 ft | 267 kts | 50° |
| 2026-04-24 07:55 | -34.09804 | 151.42318 | 5483 ft | 272 kts | 48° |
| 2026-04-24 07:55 | -34.08520 | 151.43982 | 5480 ft | 269 kts | 48° |
| 2026-04-24 07:55 | -34.07247 | 151.45648 | 5474 ft | 272 kts | 47° |
| 2026-04-24 07:55 | -34.05764 | 151.47028 | 5489 ft | 271 kts | 26° |
| 2026-04-24 07:56 | -34.03957 | 151.47749 | 5478 ft | 276 kts | 17° |
| 2026-04-24 07:56 | -34.02112 | 151.48337 | 5479 ft | 276 kts | 17° |
| 2026-04-24 07:56 | -34.00258 | 151.48924 | 5478 ft | 275 kts | 17° |
| 2026-04-24 07:56 | -33.98417 | 151.49529 | 5478 ft | 276 kts | 17° |
| 2026-04-24 07:57 | -33.96604 | 151.50129 | 5478 ft | 275 kts | 18° |
| 2026-04-24 07:57 | -33.94744 | 151.50738 | 5476 ft | 275 kts | 17° |
| 2026-04-24 07:57 | -33.92888 | 151.51342 | 5475 ft | 276 kts | 17° |
| 2026-04-24 07:57 | -33.91025 | 151.51954 | 5479 ft | 276 kts | 17° |
| 2026-04-24 07:58 | -33.89166 | 151.52563 | 5479 ft | 278 kts | 17° |
| 2026-04-24 07:58 | -33.87312 | 151.53167 | 5474 ft | 276 kts | 18° |
| 2026-04-24 07:58 | -33.85417 | 151.53780 | 5482 ft | 286 kts | 17° |
| 2026-04-24 07:58 | -33.83538 | 151.54396 | 5466 ft | 277 kts | 17° |
| 2026-04-24 07:59 | -33.81674 | 151.55009 | 5464 ft | 276 kts | 17° |
| 2026-04-24 07:59 | -33.79814 | 151.55618 | 5459 ft | 277 kts | 17° |
| 2026-04-24 07:59 | -33.77976 | 151.56216 | 5461 ft | 276 kts | 17° |
| 2026-04-24 07:59 | -33.76114 | 151.56821 | 5460 ft | 277 kts | 18° |
| 2026-04-24 08:00 | -33.74254 | 151.57429 | 5461 ft | 277 kts | 17° |
| 2026-04-24 08:00 | -33.72400 | 151.58033 | 5460 ft | 276 kts | 17° |
| 2026-04-24 08:00 | -33.70540 | 151.58638 | 5462 ft | 277 kts | 17° |
| 2026-04-24 08:00 | -33.68678 | 151.59244 | 5462 ft | 277 kts | 17° |
| 2026-04-24 08:01 | -33.66818 | 151.59849 | 5464 ft | 277 kts | 17° |
| 2026-04-24 08:01 | -33.64967 | 151.60489 | 5475 ft | 277 kts | 25° |
| 2026-04-24 08:01 | -33.63321 | 151.61658 | 6038 ft | 274 kts | 35° |
| 2026-04-24 08:01 | -33.61703 | 151.62924 | 6904 ft | 283 kts | 35° |
| 2026-04-24 08:02 | -33.60016 | 151.64258 | 7608 ft | 296 kts | 35° |
| 2026-04-24 08:02 | -33.58268 | 151.65636 | 8466 ft | 304 kts | 35° |
| 2026-04-24 08:02 | -33.56478 | 151.67041 | 9415 ft | 310 kts | 35° |
| 2026-04-24 08:02 | -33.54650 | 151.68473 | 10407 ft | 316 kts | 36° |
| 2026-04-24 08:03 | -33.52790 | 151.69934 | 11298 ft | 322 kts | 36° |
| 2026-04-24 08:03 | -33.50929 | 151.71395 | 12165 ft | 327 kts | 36° |
| 2026-04-24 08:03 | -33.48918 | 151.72721 | 13028 ft | 335 kts | 21° |
| 2026-04-24 08:03 | -33.46658 | 151.73518 | 13895 ft | 342 kts | 17° |
| 2026-04-24 08:04 | -33.44333 | 151.74223 | 14687 ft | 347 kts | 17° |
| 2026-04-24 08:04 | -33.41975 | 151.74954 | 15436 ft | 351 kts | 18° |
| 2026-04-24 08:04 | -33.39602 | 151.75737 | 16185 ft | 356 kts | 18° |
| 2026-04-24 08:04 | -33.37203 | 151.76530 | 16943 ft | 360 kts | 18° |
| 2026-04-24 08:05 | -33.34761 | 151.77316 | 17708 ft | 365 kts | 18° |
| 2026-04-24 08:05 | -33.32284 | 151.78110 | 18324 ft | 374 kts | 18° |
| 2026-04-24 08:05 | -33.29727 | 151.78938 | 18768 ft | 389 kts | 18° |
| 2026-04-24 08:05 | -33.27071 | 151.79799 | 19200 ft | 401 kts | 18° |
| 2026-04-24 08:06 | -33.24343 | 151.80678 | 19766 ft | 410 kts | 18° |
| 2026-04-24 08:06 | -33.21608 | 151.81557 | 20369 ft | 416 kts | 18° |
| 2026-04-24 08:06 | -33.18789 | 151.82465 | 21007 ft | 422 kts | 18° |
| 2026-04-24 08:06 | -33.15937 | 151.83385 | 21634 ft | 427 kts | 18° |
| 2026-04-24 08:07 | -33.13047 | 151.84315 | 22259 ft | 432 kts | 18° |
| 2026-04-24 08:07 | -33.10123 | 151.85254 | 22869 ft | 437 kts | 18° |
| 2026-04-24 08:07 | -33.07169 | 151.86203 | 23478 ft | 442 kts | 18° |
| 2026-04-24 08:07 | -33.04183 | 151.87162 | 24052 ft | 446 kts | 18° |
| 2026-04-24 08:08 | -33.01172 | 151.88129 | 24538 ft | 450 kts | 18° |
| 2026-04-24 08:08 | -32.98114 | 151.89109 | 24899 ft | 458 kts | 18° |
| 2026-04-24 08:08 | -32.95005 | 151.90106 | 25175 ft | 467 kts | 18° |
| 2026-04-24 08:09 | -32.88645 | 151.92140 | 25901 ft | 478 kts | 18° |
| 2026-04-24 08:09 | -32.85410 | 151.93174 | 26324 ft | 483 kts | 18° |
| 2026-04-24 08:09 | -32.82155 | 151.94215 | 26743 ft | 487 kts | 18° |
| 2026-04-24 08:09 | -32.78911 | 151.95250 | 27183 ft | 490 kts | 18° |
| 2026-04-24 08:10 | -32.75558 | 151.96320 | 27631 ft | 494 kts | 18° |
| 2026-04-24 08:10 | -32.72272 | 151.97367 | 28062 ft | 497 kts | 18° |
| 2026-04-24 08:10 | -32.68919 | 151.98435 | 28502 ft | 500 kts | 18° |
| 2026-04-24 08:10 | -32.65550 | 151.99507 | 28960 ft | 503 kts | 18° |
| 2026-04-24 08:11 | -32.62152 | 152.00587 | 29540 ft | 504 kts | 18° |
| 2026-04-24 08:11 | -32.58768 | 152.01661 | 30213 ft | 502 kts | 18° |
| 2026-04-24 08:11 | -32.55401 | 152.02730 | 30815 ft | 501 kts | 18° |
| 2026-04-24 08:11 | -32.52031 | 152.03800 | 31328 ft | 500 kts | 18° |
| 2026-04-24 08:12 | -32.48671 | 152.04865 | 31818 ft | 500 kts | 18° |
| 2026-04-24 08:12 | -32.45307 | 152.05930 | 32299 ft | 500 kts | 18° |
| 2026-04-24 08:12 | -32.41926 | 152.07001 | 32449 ft | 504 kts | 18° |
| 2026-04-24 08:13 | -32.35164 | 152.09138 | 32446 ft | 502 kts | 18° |
| 2026-04-24 08:13 | -32.28423 | 152.11266 | 32452 ft | 502 kts | 18° |
| 2026-04-24 08:14 | -32.21714 | 152.13380 | 32462 ft | 502 kts | 18° |
| 2026-04-24 08:14 | -32.14965 | 152.15504 | 32460 ft | 502 kts | 18° |
| 2026-04-24 08:15 | -32.08214 | 152.17625 | 32615 ft | 502 kts | 18° |
| 2026-04-24 08:15 | -32.04846 | 152.18682 | 33130 ft | 501 kts | 18° |
| 2026-04-24 08:15 | -32.01473 | 152.19740 | 33600 ft | 501 kts | 18° |
| 2026-04-24 08:15 | -31.98104 | 152.20795 | 34055 ft | 501 kts | 18° |
| 2026-04-24 08:16 | -31.94731 | 152.21852 | 34476 ft | 501 kts | 18° |
| 2026-04-24 08:16 | -31.91356 | 152.22908 | 34822 ft | 502 kts | 18° |
| 2026-04-24 08:16 | -31.87980 | 152.23963 | 35144 ft | 502 kts | 18° |
| 2026-04-24 08:16 | -31.84591 | 152.25021 | 35485 ft | 503 kts | 18° |
| 2026-04-24 08:17 | -31.81204 | 152.26079 | 35803 ft | 504 kts | 18° |
| 2026-04-24 08:17 | -31.77815 | 152.27136 | 36133 ft | 504 kts | 17° |
| 2026-04-24 08:17 | -31.74462 | 152.28181 | 36428 ft | 505 kts | 17° |
| 2026-04-24 08:17 | -31.71053 | 152.29243 | 36705 ft | 507 kts | 17° |
| 2026-04-24 08:18 | -31.67636 | 152.30306 | 36977 ft | 508 kts | 17° |
| 2026-04-24 08:18 | -31.64207 | 152.31373 | 37247 ft | 509 kts | 17° |
| 2026-04-24 08:18 | -31.60769 | 152.32441 | 37529 ft | 510 kts | 17° |
| 2026-04-24 08:18 | -31.57333 | 152.33508 | 37801 ft | 511 kts | 17° |
| 2026-04-24 08:19 | -31.53888 | 152.34577 | 38078 ft | 513 kts | 16° |
| 2026-04-24 08:19 | -31.50437 | 152.35647 | 38341 ft | 514 kts | 16° |
| 2026-04-24 08:19 | -31.47121 | 152.36674 | 38595 ft | 515 kts | 16° |